Westchester County Airport
KHPN : now visible

Airfield :











YOU CAN JOIN US ON...

 
LOGIN :

Register | Disclaimer

   EN    FR    IT 

 









Legend :    VFR   Marginal VFR   IFR   Intensive IFR   Very Intensive IFR
Visi :
Ceiling :
>= 8 km
>= 3000ft
5 to 8 km
1000 to 3000 ft
1500m to 5 km
500 to 1000 ft
800 to 1500m
200 to 500 ft
< 800m
< 200 ft
Symbols :   Thunderstorms  Fog  Heavy snow  Heavy precipitations  Wind > 20 kt






- Airport Elevation : 439 ft
- IATA code : HPN


KHPN - Westchester County

CURRENT METAR :
  • 151456Z 18007KT 10SM BKN090 28/22 A2992 RMK AO2 SLP124 T02830222 55001

EXPIRED METARs :
  • 151356Z VRB06KT 10SM CLR 29/21 A2991 RMK AO2 SLP122 T02940211
  • 151256Z 00000KT 10SM CLR 28/21 A2992 RMK AO2 SLP125 T02780206
  • 151156Z 22005KT 10SM CLR 26/21 A2992 RMK AO2 SLP125 60000 T02560206 10256 20222 51002 $
  • 151056Z 00000KT 10SM SCT075 BKN100 24/22 A2991 RMK AO2 RAB44E53 SLP122 P0000 T02390217 $

TAF KHPN
Valid from the 15 at 15:00 until the 16 at 12:00 UTC


151432Z 1515/1612 21006KT P6SM FEW060
FM151800 19008KT P6SM VCSH SCT070 SCT100
FM152100 19009KT P6SM SCT070
FM160000 23004KT P6SM SCT100 AMD NOT SKED
KZBW FIR / North America



MET'MAP, your aeronautical weather chart ! - Copyright ORBIFLY December 2007 - Disclaimer

ORBIFLY MET'MAP TEAM :

Programming & Development : Alexandra Zaïnal
Original concept : Baudouin d'Aumeries
Technical & hardware support : Manuel Goepfert
Assistance : Marc-Olivier Méhu




SOURCES & CREDITS :

   NOAA       Earth
Advisory